Time;durP1;ratioP1;P1;durP2;ratioP2;P2;SDS_P1;SDS_P2;PMS_P1;PMS_P2;Temp;Humidity;BMP_temperature;BMP_pressure;BME280_temperature;BME280_humidity;BME280_pressure;Samples;Min_cycle;Max_cycle;Signal;HPM_P1;HPM_P2
2022/10/15 00:00:39;;;;;;;82.82;52.78;;;15.90;99.90;;;;;;5061575;28;20021;-72
2022/10/15 00:03:04;;;;;;;91.93;54.28;;;16.00;99.90;;;;;;5058325;28;20059;-72
2022/10/15 00:05:30;;;;;;;92.45;55.80;;;16.00;99.90;;;;;;5056416;28;20033;-72
2022/10/15 00:07:55;;;;;;;88.68;54.03;;;16.00;99.90;;;;;;5042625;28;20047;-73
2022/10/15 00:10:21;;;;;;;82.60;51.05;;;16.00;99.90;;;;;;5061736;28;20048;-73
2022/10/15 00:12:47;;;;;;;77.85;48.60;;;16.00;99.90;;;;;;5062859;28;20043;-73
2022/10/15 00:15:14;;;;;;;85.50;50.58;;;16.10;99.90;;;;;;5061749;28;20036;-72
2022/10/15 00:17:39;;;;;;;72.57;48.45;;;16.10;99.90;;;;;;5059683;28;20036;-73
2022/10/15 00:20:08;;;;;;;71.85;47.90;;;16.00;99.90;;;;;;5059875;28;20021;-72
2022/10/15 00:22:34;;;;;;;79.45;49.13;;;16.00;99.90;;;;;;5058123;28;20075;-73
2022/10/15 00:25:01;;;;;;;73.93;44.78;;;16.00;99.90;;;;;;5064737;28;20117;-73
2022/10/15 00:27:27;;;;;;;66.93;42.67;;;16.10;99.90;;;;;;5061947;28;20040;-73
2022/10/15 00:29:52;;;;;;;66.28;40.00;;;16.00;99.90;;;;;;5061335;28;20048;-72
2022/10/15 00:32:18;;;;;;;67.22;42.33;;;16.00;99.90;;;;;;5057242;28;20548;-73
2022/10/15 00:34:43;;;;;;;67.47;42.08;;;15.90;99.90;;;;;;5056359;28;20028;-73
2022/10/15 00:37:09;;;;;;;70.30;42.40;;;15.90;99.90;;;;;;5059872;28;20046;-73
2022/10/15 00:39:35;;;;;;;78.05;43.92;;;15.90;99.90;;;;;;5063015;28;20059;-73
2022/10/15 00:42:01;;;;;;;61.85;40.97;;;15.90;99.90;;;;;;5064158;28;20150;-72
2022/10/15 00:44:29;;;;;;;60.42;40.72;;;15.90;99.90;;;;;;5061016;28;20199;-73
2022/10/15 00:47:19;;;;;;;66.55;42.58;;;15.90;99.90;;;;;;5062696;28;20055;-72
2022/10/15 00:49:54;;;;;;;63.20;38.70;;;15.90;99.90;;;;;;5062297;28;20040;-72
2022/10/15 00:52:24;;;;;;;59.70;37.35;;;15.90;99.90;;;;;;5062078;28;20079;-72
2022/10/15 00:54:55;;;;;;;52.88;35.40;;;16.00;99.90;;;;;;5064451;28;20016;-72
2022/10/15 00:57:21;;;;;;;63.88;36.97;;;16.00;99.90;;;;;;5063772;28;20040;-72
2022/10/15 00:59:51;;;;;;;48.45;33.42;;;16.00;99.90;;;;;;5059925;28;20082;-72
2022/10/15 01:02:19;;;;;;;49.33;33.35;;;16.00;99.90;;;;;;5061580;28;20029;-72
2022/10/15 01:04:45;;;;;;;47.40;32.35;;;16.00;99.90;;;;;;5064587;28;20035;-72
2022/10/15 01:07:11;;;;;;;42.03;29.20;;;16.00;99.90;;;;;;5063518;28;20035;-72
2022/10/15 01:09:38;;;;;;;42.70;30.15;;;15.90;99.90;;;;;;5063558;28;20033;-72
2022/10/15 01:12:07;;;;;;;44.40;32.25;;;15.90;99.90;;;;;;5063533;28;20028;-72
2022/10/15 01:14:38;;;;;;;41.72;27.88;;;16.00;99.90;;;;;;5059476;28;20043;-72
2022/10/15 01:17:17;;;;;;;45.53;30.30;;;15.90;99.90;;;;;;5064170;28;20025;-72
2022/10/15 01:20:15;;;;;;;41.75;28.05;;;15.90;99.90;;;;;;5062291;28;20121;-72
2022/10/15 01:22:55;;;;;;;42.30;27.42;;;15.90;99.90;;;;;;5062740;28;20370;-73
2022/10/15 01:25:42;;;;;;;39.05;27.05;;;15.90;99.90;;;;;;5061700;28;20089;-72
2022/10/15 01:28:11;;;;;;;37.25;27.13;;;15.80;99.90;;;;;;5064259;28;20439;-72
2022/10/15 01:30:40;;;;;;;29.48;22.10;;;15.80;99.90;;;;;;5061060;28;20390;-72
2022/10/15 01:33:29;;;;;;;28.20;20.90;;;15.80;99.90;;;;;;5060403;28;20017;-73
2022/10/15 01:36:18;;;;;;;30.13;22.85;;;15.80;99.90;;;;;;5062642;28;20036;-72
2022/10/15 01:38:59;;;;;;;31.80;21.70;;;15.80;99.90;;;;;;5061936;28;20032;-72
2022/10/15 01:41:43;;;;;;;35.30;24.13;;;15.80;99.90;;;;;;5061772;28;20077;-73
2022/10/15 01:44:21;;;;;;;31.83;22.60;;;15.80;99.90;;;;;;5059777;28;20024;-72
2022/10/15 01:46:59;;;;;;;35.83;24.40;;;15.80;99.90;;;;;;5061546;28;20486;-72
2022/10/15 01:49:30;;;;;;;37.15;25.75;;;15.90;99.90;;;;;;5059689;28;20491;-72
2022/10/15 01:51:57;;;;;;;36.35;25.30;;;15.80;99.90;;;;;;5062863;28;20392;-72
2022/10/15 01:54:26;;;;;;;40.50;27.77;;;15.80;99.90;;;;;;5060233;28;20097;-72
2022/10/15 01:56:53;;;;;;;42.88;28.35;;;15.80;99.90;;;;;;5060767;28;20024;-72
2022/10/15 01:59:26;;;;;;;41.53;28.25;;;15.90;99.90;;;;;;5062061;28;20013;-73
2022/10/15 02:01:52;;;;;;;47.97;31.42;;;15.80;99.90;;;;;;5063155;28;20460;-72
2022/10/15 02:04:20;;;;;;;43.90;28.60;;;15.80;99.90;;;;;;5057639;28;20463;-72
2022/10/15 02:07:07;;;;;;;43.33;28.73;;;15.80;99.90;;;;;;5061052;28;20032;-72
2022/10/15 02:09:56;;;;;;;47.88;28.42;;;15.80;99.90;;;;;;5059400;28;20052;-72
2022/10/15 02:12:21;;;;;;;47.58;30.13;;;15.70;99.90;;;;;;5062368;28;21307;-73
2022/10/15 02:14:57;;;;;;;46.20;28.95;;;15.70;99.90;;;;;;5060662;28;20487;-72
2022/10/15 02:17:52;;;;;;;44.90;28.85;;;15.70;99.90;;;;;;5061927;28;20489;-73
2022/10/15 02:20:34;;;;;;;49.85;32.15;;;15.70;99.90;;;;;;5024449;28;20038;-72
2022/10/15 02:23:11;;;;;;;49.45;30.73;;;15.70;99.90;;;;;;5061015;28;20037;-72
2022/10/15 02:25:39;;;;;;;53.80;30.77;;;15.70;99.90;;;;;;5060017;28;20020;-72
2022/10/15 02:28:05;;;;;;;53.80;31.85;;;15.70;99.90;;;;;;5059325;28;20032;-72
2022/10/15 02:30:32;;;;;;;58.72;32.85;;;15.70;99.90;;;;;;5060559;28;20453;-72
2022/10/15 02:32:59;;;;;;;53.55;33.85;;;15.70;99.90;;;;;;5060364;28;20021;-72
2022/10/15 02:35:26;;;;;;;61.67;34.90;;;15.70;99.90;;;;;;5060638;28;20036;-73
2022/10/15 02:37:56;;;;;;;59.10;34.30;;;15.60;99.90;;;;;;5061590;28;20025;-73
2022/10/15 02:40:26;;;;;;;59.13;33.13;;;15.60;99.90;;;;;;5060288;28;20666;-72
2022/10/15 02:42:52;;;;;;;68.20;37.95;;;15.60;99.90;;;;;;5063270;28;20044;-72
2022/10/15 02:45:17;;;;;;;55.92;32.95;;;15.60;99.90;;;;;;5059675;28;20029;-72
2022/10/15 02:47:43;;;;;;;59.58;34.47;;;15.60;99.90;;;;;;5060531;28;20040;-73
2022/10/15 02:50:09;;;;;;;48.63;29.75;;;15.60;99.90;;;;;;5060898;28;20427;-72
2022/10/15 02:52:34;;;;;;;51.08;31.67;;;15.70;99.90;;;;;;5063343;28;20058;-72
2022/10/15 02:55:00;;;;;;;43.50;28.02;;;15.60;99.90;;;;;;5064109;28;20056;-72
2022/10/15 02:57:25;;;;;;;56.97;31.45;;;15.60;99.90;;;;;;5061832;28;20920;-72
2022/10/15 02:59:51;;;;;;;59.25;31.17;;;15.60;99.90;;;;;;5062590;28;20150;-72
2022/10/15 03:02:17;;;;;;;51.15;29.23;;;15.60;99.90;;;;;;5061241;28;20021;-72
2022/10/15 03:04:42;;;;;;;56.58;29.85;;;15.60;99.90;;;;;;5061748;28;20377;-72
2022/10/15 03:07:08;;;;;;;47.35;27.55;;;15.60;99.90;;;;;;5060784;28;20023;-72
2022/10/15 03:09:33;;;;;;;53.80;29.15;;;15.60;99.90;;;;;;5063625;28;20129;-72
2022/10/15 03:11:59;;;;;;;45.92;27.25;;;15.60;99.90;;;;;;5062592;28;20031;-72
2022/10/15 03:14:25;;;;;;;44.22;27.17;;;15.50;99.90;;;;;;5076657;28;20059;-72
2022/10/15 03:16:50;;;;;;;38.28;23.42;;;15.60;99.90;;;;;;5062780;28;20032;-72
2022/10/15 03:19:16;;;;;;;42.95;24.98;;;15.60;99.90;;;;;;5060503;28;20035;-72
2022/10/15 03:21:41;;;;;;;41.00;26.33;;;15.60;99.90;;;;;;5059875;28;20017;-72
2022/10/15 03:24:07;;;;;;;44.00;25.17;;;15.50;99.90;;;;;;5061925;28;20033;-72
2022/10/15 03:26:33;;;;;;;41.60;26.60;;;15.50;99.90;;;;;;5061622;28;20099;-73
2022/10/15 03:28:58;;;;;;;38.20;24.10;;;15.60;99.90;;;;;;5061513;28;20290;-72
2022/10/15 03:31:24;;;;;;;47.72;27.70;;;15.60;99.90;;;;;;5062714;28;20033;-72
2022/10/15 03:33:49;;;;;;;52.33;29.13;;;15.60;99.90;;;;;;5060804;28;20503;-72
2022/10/15 03:36:16;;;;;;;37.00;24.65;;;15.60;99.90;;;;;;5065941;28;20465;-72
2022/10/15 03:38:41;;;;;;;45.65;27.25;;;15.60;99.90;;;;;;5064889;28;20028;-72
2022/10/15 03:41:07;;;;;;;44.53;25.98;;;15.60;99.90;;;;;;5062224;28;20404;-72
2022/10/15 03:43:33;;;;;;;71.05;33.28;;;15.60;99.90;;;;;;5064869;28;20032;-72
2022/10/15 03:46:03;;;;;;;49.13;28.50;;;15.60;99.90;;;;;;5062953;28;20127;-72
2022/10/15 03:48:29;;;;;;;63.67;34.08;;;15.60;99.90;;;;;;5064080;28;20045;-73
2022/10/15 03:50:54;;;;;;;61.95;34.20;;;15.50;99.90;;;;;;5063406;28;20039;-72
2022/10/15 03:53:21;;;;;;;74.82;37.15;;;15.60;99.90;;;;;;5065424;28;20115;-72
2022/10/15 03:55:47;;;;;;;62.17;35.75;;;15.50;99.90;;;;;;5062579;28;20032;-72
2022/10/15 03:58:13;;;;;;;62.95;35.78;;;15.50;99.90;;;;;;5061863;28;20090;-72
2022/10/15 04:00:42;;;;;;;67.07;36.10;;;15.50;99.90;;;;;;5065039;28;20036;-73
2022/10/15 04:03:08;;;;;;;74.28;37.92;;;15.50;99.90;;;;;;5066413;28;20036;-72
2022/10/15 04:05:34;;;;;;;66.15;37.50;;;15.50;99.90;;;;;;5062891;28;20016;-73
2022/10/15 04:08:00;;;;;;;86.65;42.33;;;15.50;99.90;;;;;;5065600;28;20039;-73
2022/10/15 04:10:25;;;;;;;75.95;38.97;;;15.50;99.90;;;;;;5062769;28;20032;-73
2022/10/15 04:12:51;;;;;;;82.80;42.50;;;15.50;99.90;;;;;;5063143;28;20028;-73
2022/10/15 04:15:17;;;;;;;74.28;39.50;;;15.50;99.90;;;;;;5063414;28;20093;-73
2022/10/15 04:17:42;;;;;;;68.05;38.22;;;15.60;99.90;;;;;;5064556;28;20500;-72
2022/10/15 04:20:08;;;;;;;73.00;39.58;;;15.60;99.90;;;;;;5061466;28;20115;-72
2022/10/15 04:22:36;;;;;;;81.53;41.75;;;15.60;99.90;;;;;;5062551;28;20028;-72
2022/10/15 04:25:01;;;;;;;86.97;45.92;;;15.70;99.90;;;;;;5063366;28;20048;-73
2022/10/15 04:27:27;;;;;;;78.80;41.95;;;15.50;99.90;;;;;;5064151;28;20083;-73
2022/10/15 04:29:53;;;;;;;89.63;43.28;;;15.50;99.90;;;;;;5076634;28;20032;-73
2022/10/15 04:32:18;;;;;;;79.28;42.83;;;15.60;99.90;;;;;;5064410;28;20115;-73
2022/10/15 04:34:45;;;;;;;83.72;42.30;;;15.60;99.90;;;;;;5059534;28;20055;-73
2022/10/15 04:37:11;;;;;;;78.15;40.90;;;15.60;99.90;;;;;;5062020;28;20086;-73
2022/10/15 04:39:37;;;;;;;80.00;40.22;;;15.70;99.90;;;;;;5064910;28;20540;-73
2022/10/15 04:42:02;;;;;;;77.88;43.55;;;15.70;99.90;;;;;;5061161;28;20032;-74
2022/10/15 04:44:28;;;;;;;70.57;37.63;;;15.70;99.90;;;;;;5061982;28;20083;-73
2022/10/15 04:46:54;;;;;;;69.45;38.03;;;15.60;99.90;;;;;;5063572;28;20036;-73
2022/10/15 04:49:19;;;;;;;72.88;39.40;;;15.60;99.90;;;;;;5061622;28;20416;-73
2022/10/15 04:51:45;;;;;;;76.47;38.70;;;15.50;99.90;;;;;;5064694;28;20043;-72
2022/10/15 04:54:11;;;;;;;73.75;36.92;;;15.60;99.90;;;;;;5064264;28;20025;-73
2022/10/15 04:56:36;;;;;;;58.95;34.00;;;15.60;99.90;;;;;;5061584;28;20051;-73
2022/10/15 04:59:06;;;;;;;54.58;33.92;;;15.50;99.90;;;;;;5063141;28;20101;-72
2022/10/15 05:01:31;;;;;;;63.60;35.13;;;15.60;99.90;;;;;;5062438;28;20429;-72
2022/10/15 05:03:57;;;;;;;57.83;34.20;;;15.60;99.90;;;;;;5061911;28;20554;-73
2022/10/15 05:06:23;;;;;;;57.03;32.60;;;15.50;99.90;;;;;;5063900;28;20040;-73
2022/10/15 05:08:49;;;;;;;63.15;32.83;;;15.50;99.90;;;;;;5061624;28;20511;-73
2022/10/15 05:11:26;;;;;;;59.20;33.50;;;15.50;99.90;;;;;;5062715;28;20473;-73
2022/10/15 05:13:54;;;;;;;55.33;31.25;;;15.40;99.90;;;;;;5061341;28;20035;-73
2022/10/15 05:16:25;;;;;;;63.83;31.35;;;15.40;99.90;;;;;;5063155;28;20040;-72
2022/10/15 05:18:54;;;;;;;64.47;33.00;;;15.40;99.90;;;;;;5062285;28;20397;-72
2022/10/15 05:21:20;;;;;;;62.17;30.33;;;15.50;99.90;;;;;;5060951;28;20025;-72
2022/10/15 05:23:46;;;;;;;56.55;30.90;;;15.50;99.90;;;;;;5061020;28;20032;-73
2022/10/15 05:26:14;;;;;;;56.20;32.30;;;15.40;99.90;;;;;;5063825;28;20473;-73
2022/10/15 05:28:40;;;;;;;69.82;35.30;;;15.40;99.90;;;;;;5063370;28;20040;-73
2022/10/15 05:31:09;;;;;;;51.80;30.13;;;15.40;99.90;;;;;;5062584;28;20020;-73
2022/10/15 05:33:36;;;;;;;67.40;33.33;;;15.50;99.90;;;;;;5061368;28;20447;-73
2022/10/15 05:36:08;;;;;;;61.15;30.55;;;15.50;99.90;;;;;;5061838;28;20017;-73
2022/10/15 05:38:33;;;;;;;53.00;29.40;;;15.40;99.90;;;;;;5061727;28;20310;-73
2022/10/15 05:40:59;;;;;;;54.13;30.55;;;15.30;99.90;;;;;;5063987;28;20021;-73
2022/10/15 05:43:25;;;;;;;62.42;31.55;;;15.30;99.90;;;;;;5059496;28;20817;-73
2022/10/15 05:45:53;;;;;;;62.47;32.80;;;15.30;99.90;;;;;;5064320;28;20106;-73
2022/10/15 05:48:19;;;;;;;59.58;31.20;;;15.30;99.90;;;;;;5060683;28;20032;-73
2022/10/15 05:50:45;;;;;;;54.97;30.52;;;15.30;99.90;;;;;;5061197;28;20033;-73
2022/10/15 05:53:10;;;;;;;59.63;31.17;;;15.20;99.90;;;;;;5062047;28;20028;-73
2022/10/15 05:55:36;;;;;;;56.65;30.52;;;15.20;99.90;;;;;;5062271;28;20025;-73
2022/10/15 05:58:03;;;;;;;60.97;30.58;;;15.20;99.90;;;;;;5062589;28;20017;-73
2022/10/15 06:00:29;;;;;;;65.43;31.40;;;15.30;99.90;;;;;;5062547;28;20060;-73
2022/10/15 06:02:54;;;;;;;61.55;30.58;;;15.30;99.90;;;;;;5060070;28;20040;-73
2022/10/15 06:05:20;;;;;;;64.55;31.02;;;15.30;99.90;;;;;;5064170;28;20032;-72
2022/10/15 06:07:45;;;;;;;68.78;32.17;;;15.40;99.90;;;;;;5061865;28;20345;-72
2022/10/15 06:10:11;;;;;;;62.00;31.20;;;15.40;99.90;;;;;;5059390;28;20028;-73
2022/10/15 06:12:41;;;;;;;70.47;32.50;;;15.30;99.90;;;;;;5063125;28;20496;-73
2022/10/15 06:15:07;;;;;;;70.68;33.17;;;15.20;99.90;;;;;;5061015;28;20048;-73
2022/10/15 06:17:32;;;;;;;66.47;32.20;;;15.30;99.90;;;;;;5064007;28;20192;-73
2022/10/15 06:19:58;;;;;;;60.80;30.95;;;15.30;99.90;;;;;;5061195;28;20036;-74
2022/10/15 06:22:24;;;;;;;67.30;32.25;;;15.30;99.90;;;;;;5059987;28;20042;-73
2022/10/15 06:24:49;;;;;;;65.82;32.22;;;15.20;99.90;;;;;;5061342;28;20466;-73
2022/10/15 06:27:15;;;;;;;66.72;32.33;;;15.30;99.90;;;;;;5060737;28;20035;-73
2022/10/15 06:29:41;;;;;;;59.35;30.75;;;15.30;99.90;;;;;;5061253;28;20530;-73
2022/10/15 06:32:10;;;;;;;66.88;30.60;;;15.30;99.90;;;;;;5062916;28;20047;-73
2022/10/15 06:34:36;;;;;;;58.15;28.27;;;15.30;99.90;;;;;;5061488;28;20530;-72
2022/10/15 06:37:02;;;;;;;59.45;30.40;;;15.20;99.90;;;;;;5063885;28;20013;-73
2022/10/15 06:39:27;;;;;;;61.63;28.90;;;15.20;99.90;;;;;;5061952;28;20464;-73
2022/10/15 06:41:53;;;;;;;54.30;27.80;;;15.20;99.90;;;;;;5062386;28;20029;-73
2022/10/15 06:44:18;;;;;;;54.58;27.67;;;15.00;99.90;;;;;;5059563;28;20418;-73
2022/10/15 06:46:44;;;;;;;50.38;26.92;;;15.10;99.90;;;;;;5063094;28;20600;-73
2022/10/15 06:49:10;;;;;;;50.05;25.40;;;15.00;99.90;;;;;;5063449;28;20037;-73
2022/10/15 06:51:36;;;;;;;49.13;25.15;;;15.10;99.90;;;;;;5062413;28;20031;-73
2022/10/15 06:54:02;;;;;;;49.15;25.50;;;15.10;99.90;;;;;;5061483;28;20516;-73
2022/10/15 06:56:28;;;;;;;57.40;27.88;;;15.10;99.90;;;;;;5060432;28;20028;-73
2022/10/15 06:58:54;;;;;;;49.20;26.30;;;15.20;99.90;;;;;;5057757;28;20066;-73
2022/10/15 07:01:19;;;;;;;42.30;24.52;;;15.30;99.90;;;;;;5060948;28;20032;-73
2022/10/15 07:03:48;;;;;;;52.65;25.42;;;15.30;99.90;;;;;;5057805;28;20028;-73
2022/10/15 07:06:14;;;;;;;45.50;24.42;;;15.30;99.90;;;;;;5061577;28;20039;-73
2022/10/15 07:08:40;;;;;;;48.25;25.58;;;15.40;99.90;;;;;;5063785;28;20044;-73
2022/10/15 07:11:10;;;;;;;45.72;24.48;;;15.30;99.90;;;;;;5065628;28;20169;-72
2022/10/15 07:13:36;;;;;;;46.15;24.25;;;15.30;99.90;;;;;;5063816;28;20028;-72
2022/10/15 07:16:09;;;;;;;43.13;23.45;;;15.40;99.90;;;;;;5066321;28;20384;-73
2022/10/15 07:18:36;;;;;;;41.40;23.48;;;15.40;99.90;;;;;;5066286;28;20493;-73
2022/10/15 07:21:03;;;;;;;40.28;21.92;;;15.40;99.90;;;;;;5066789;28;20473;-72
2022/10/15 07:23:28;;;;;;;38.40;20.85;;;15.30;99.90;;;;;;5066090;28;20032;-73
2022/10/15 07:25:56;;;;;;;38.13;20.45;;;15.40;99.90;;;;;;5062831;28;20519;-73
2022/10/15 07:28:22;;;;;;;38.25;20.30;;;15.40;99.90;;;;;;5062503;28;20033;-72
2022/10/15 07:30:48;;;;;;;35.28;20.00;;;15.40;99.90;;;;;;5063881;28;20044;-73
2022/10/15 07:33:13;;;;;;;35.78;21.20;;;15.50;99.90;;;;;;5066273;28;20412;-72
2022/10/15 07:35:39;;;;;;;26.40;16.38;;;15.50;99.90;;;;;;5066008;28;20025;-72
2022/10/15 07:38:04;;;;;;;28.40;15.98;;;15.60;99.90;;;;;;5067627;28;20027;-73
2022/10/15 07:40:30;;;;;;;26.90;16.92;;;15.60;99.90;;;;;;5066585;28;20103;-72
2022/10/15 07:42:57;;;;;;;26.58;14.88;;;15.60;99.90;;;;;;5065978;28;20146;-73
2022/10/15 07:45:23;;;;;;;22.77;13.57;;;15.60;99.90;;;;;;5063168;28;20676;-73
2022/10/15 07:47:49;;;;;;;20.88;12.50;;;15.70;99.90;;;;;;5064748;28;20130;-73
2022/10/15 07:50:14;;;;;;;21.65;12.82;;;15.70;99.90;;;;;;5062341;28;20033;-73
2022/10/15 07:52:40;;;;;;;20.50;11.55;;;15.70;99.90;;;;;;5064435;28;20029;-73
2022/10/15 07:55:06;;;;;;;21.50;11.70;;;15.70;99.90;;;;;;5064407;28;20032;-72
2022/10/15 07:57:32;;;;;;;20.02;10.75;;;15.70;99.90;;;;;;5062470;28;20040;-73
2022/10/15 07:59:57;;;;;;;17.27;10.95;;;15.80;99.90;;;;;;5063568;28;20032;-73
2022/10/15 08:02:23;;;;;;;17.63;11.35;;;15.80;99.90;;;;;;5057645;28;20597;-73
2022/10/15 08:04:49;;;;;;;16.08;9.63;;;15.90;99.90;;;;;;5064408;28;20538;-73
2022/10/15 08:07:14;;;;;;;17.38;10.65;;;15.80;99.90;;;;;;5064036;28;20139;-73
2022/10/15 08:09:40;;;;;;;15.98;9.93;;;15.90;99.90;;;;;;5064286;28;20041;-73
2022/10/15 08:12:05;;;;;;;15.38;9.85;;;15.90;99.90;;;;;;5063837;28;20074;-73
2022/10/15 08:14:32;;;;;;;16.90;9.73;;;16.00;99.90;;;;;;5064722;28;20036;-74
2022/10/15 08:16:58;;;;;;;18.27;9.88;;;16.00;99.90;;;;;;5064159;28;20073;-74
2022/10/15 08:19:24;;;;;;;17.70;10.23;;;16.00;99.90;;;;;;5063395;28;20056;-74
2022/10/15 08:21:49;;;;;;;14.32;9.88;;;16.10;99.90;;;;;;5064627;28;20055;-74
2022/10/15 08:24:15;;;;;;;16.63;9.68;;;16.10;99.90;;;;;;5061450;28;20465;-73
2022/10/15 08:26:40;;;;;;;14.63;9.02;;;16.20;99.90;;;;;;5064769;28;20108;-74
2022/10/15 08:29:06;;;;;;;20.02;8.82;;;16.20;99.90;;;;;;5066060;28;20033;-74
2022/10/15 08:31:32;;;;;;;16.00;8.25;;;16.20;99.90;;;;;;5062601;28;20029;-74
2022/10/15 08:34:01;;;;;;;12.55;8.07;;;16.20;99.90;;;;;;5060662;28;20032;-74
2022/10/15 08:36:27;;;;;;;13.13;8.27;;;16.40;99.90;;;;;;5063831;28;20123;-74
2022/10/15 08:38:53;;;;;;;13.60;8.02;;;16.40;99.90;;;;;;5064980;28;20086;-74
2022/10/15 08:41:39;;;;;;;13.57;7.32;;;16.50;99.90;;;;;;5063411;28;20032;-74
2022/10/15 08:44:13;;;;;;;9.63;6.82;;;16.60;99.90;;;;;;5062683;28;20086;-74
2022/10/15 08:46:44;;;;;;;10.70;6.55;;;16.60;99.90;;;;;;5063247;28;20017;-74
2022/10/15 08:49:33;;;;;;;8.95;6.18;;;16.60;99.90;;;;;;5056165;28;20116;-74
2022/10/15 08:52:26;;;;;;;10.55;6.22;;;16.70;99.90;;;;;;5054203;28;20060;-74
2022/10/15 08:54:54;;;;;;;7.90;5.15;;;16.60;99.90;;;;;;5055548;28;20041;-74
2022/10/15 08:57:57;;;;;;;6.78;4.80;;;16.70;99.90;;;;;;5061086;28;20051;-73
2022/10/15 09:00:24;;;;;;;;;;;16.50;99.90;;;;;;5062664;28;20032;-74
2022/10/15 09:03:11;;;;;;;5.70;4.68;;;16.70;99.90;;;;;;5063957;28;19942;-74
2022/10/15 09:05:48;;;;;;;7.53;4.43;;;16.80;99.90;;;;;;5061912;28;20025;-74
2022/10/15 09:08:29;;;;;;;5.63;4.15;;;16.70;99.90;;;;;;5059200;28;20321;-74
2022/10/15 09:11:32;;;;;;;3.80;3.30;;;16.80;99.90;;;;;;5064942;28;20040;-74
2022/10/15 09:13:58;;;;;;;5.72;3.20;;;16.80;99.90;;;;;;5062234;28;20125;-74
2022/10/15 09:16:32;;;;;;;7.38;3.53;;;16.80;99.90;;;;;;5063579;28;20162;-72
2022/10/15 09:19:02;;;;;;;4.40;3.33;;;16.90;99.90;;;;;;5056825;28;20028;-72
2022/10/15 09:21:29;;;;;;;4.15;3.33;;;16.70;99.90;;;;;;5062432;28;20033;-72
2022/10/15 09:24:03;;;;;;;5.88;3.50;;;16.70;99.90;;;;;;5063047;28;20113;-73
2022/10/15 09:26:58;;;;;;;4.63;3.72;;;16.70;99.90;;;;;;5062136;28;20089;-73
2022/10/15 09:29:35;;;;;;;5.45;3.40;;;16.60;99.90;;;;;;5061378;28;20101;-73
2022/10/15 09:32:30;;;;;;;5.32;3.42;;;16.70;99.90;;;;;;5061706;28;20104;-73
2022/10/15 09:35:01;;;;;;;3.22;2.85;;;16.70;99.90;;;;;;5061137;28;20054;-74
2022/10/15 09:37:30;;;;;;;3.30;3.00;;;16.60;99.90;;;;;;5061978;28;20032;-73
2022/10/15 09:40:04;;;;;;;2.35;2.15;;;16.80;99.90;;;;;;5061506;28;20036;-74
2022/10/15 09:42:35;;;;;;;4.40;2.25;;;16.70;99.90;;;;;;5059483;28;20117;-73
2022/10/15 09:45:10;;;;;;;3.25;1.95;;;16.80;99.90;;;;;;5056642;28;20179;-72
2022/10/15 09:47:39;;;;;;;3.50;2.15;;;16.90;99.90;;;;;;5045975;28;20027;-73
2022/10/15 09:50:07;;;;;;;2.47;2.15;;;16.90;99.90;;;;;;5018825;28;20530;-73
2022/10/15 09:52:39;;;;;;;2.85;2.20;;;16.90;99.90;;;;;;5050188;28;20023;-73
2022/10/15 09:55:25;;;;;;;2.83;1.92;;;17.00;99.90;;;;;;5047752;28;20168;-73
2022/10/15 09:57:54;;;;;;;2.25;2.05;;;17.00;99.90;;;;;;5046342;28;20047;-73
2022/10/15 10:00:20;;;;;;;1.92;1.73;;;17.00;99.90;;;;;;5046555;28;20023;-73
2022/10/15 10:03:12;;;;;;;3.22;1.83;;;17.00;99.90;;;;;;5039670;28;20028;-73
2022/10/15 10:05:38;;;;;;;2.07;1.97;;;17.00;99.90;;;;;;5038178;28;20044;-73
2022/10/15 10:08:15;;;;;;;2.47;1.90;;;17.10;99.90;;;;;;5047373;28;20330;-73
2022/10/15 10:10:41;;;;;;;3.28;1.98;;;17.20;99.90;;;;;;5044551;28;20025;-72
2022/10/15 10:13:22;;;;;;;2.15;1.80;;;17.30;99.90;;;;;;5029055;28;20054;-73
2022/10/15 10:15:50;;;;;;;1.85;1.40;;;17.30;99.90;;;;;;5043920;28;20584;-73
2022/10/15 10:18:21;;;;;;;2.00;1.50;;;17.20;99.90;;;;;;5044968;28;20024;-73
2022/10/15 10:21:10;;;;;;;2.85;1.92;;;17.30;99.90;;;;;;5045077;28;20029;-73
2022/10/15 10:23:38;;;;;;;1.67;1.35;;;17.40;99.90;;;;;;5048191;28;20032;-73
2022/10/15 10:26:09;;;;;;;1.63;1.52;;;17.40;99.90;;;;;;5047468;28;20028;-71
2022/10/15 10:28:53;;;;;;;4.35;1.40;;;17.40;99.90;;;;;;5047152;28;20040;-71
2022/10/15 10:31:29;;;;;;;1.88;1.77;;;17.40;99.90;;;;;;5047682;28;20044;-71
2022/10/15 10:33:55;;;;;;;1.40;1.30;;;17.50;99.90;;;;;;5047519;28;21046;-72
2022/10/15 10:36:26;;;;;;;2.53;1.48;;;17.60;99.90;;;;;;5049544;28;20063;-72
2022/10/15 10:39:00;;;;;;;3.38;1.30;;;17.50;99.90;;;;;;5047174;28;20266;-71
2022/10/15 10:41:56;;;;;;;3.60;1.40;;;17.60;99.90;;;;;;5045890;28;20029;-72
2022/10/15 10:44:25;;;;;;;1.15;1.05;;;17.60;99.90;;;;;;5045793;28;20516;-72
2022/10/15 10:47:11;;;;;;;3.22;1.30;;;17.70;99.90;;;;;;5047117;28;20512;-72
2022/10/15 10:49:56;;;;;;;2.60;1.65;;;17.70;99.90;;;;;;5049521;28;20043;-72
2022/10/15 10:52:30;;;;;;;3.05;1.85;;;17.80;99.90;;;;;;5055070;28;20124;-72
2022/10/15 10:55:24;;;;;;;2.17;1.98;;;17.80;99.90;;;;;;5063901;28;20024;-73
2022/10/15 10:57:58;;;;;;;2.78;1.30;;;17.90;99.90;;;;;;5056540;28;20111;-72
2022/10/15 11:00:41;;;;;;;2.00;1.10;;;17.80;99.90;;;;;;5057007;28;20075;-72
2022/10/15 11:03:33;;;;;;;1.92;1.00;;;17.90;99.90;;;;;;5060030;28;20490;-72
2022/10/15 11:06:10;;;;;;;1.20;1.10;;;17.90;99.90;;;;;;5061410;28;20029;-71
2022/10/15 11:08:56;;;;;;;1.38;1.27;;;17.90;99.90;;;;;;5059728;28;20317;-71
2022/10/15 11:11:31;;;;;;;1.20;1.10;;;18.00;99.90;;;;;;5060874;28;20032;-72
2022/10/15 11:14:08;;;;;;;1.27;1.17;;;18.00;99.90;;;;;;5060496;28;20676;-72
2022/10/15 11:17:19;;;;;;;0.90;0.90;;;18.00;99.90;;;;;;5068876;28;20505;-72
2022/10/15 11:20:10;;;;;;;2.67;1.08;;;18.10;99.90;;;;;;5054386;28;20036;-72
2022/10/15 11:23:10;;;;;;;2.10;1.08;;;18.20;99.90;;;;;;5056612;28;20544;-72
2022/10/15 11:25:58;;;;;;;4.88;1.00;;;18.30;99.90;;;;;;5065460;28;20460;-72
2022/10/15 11:28:58;;;;;;;3.72;1.10;;;18.50;99.90;;;;;;5060022;28;20098;-72
2022/10/15 11:31:51;;;;;;;3.10;1.20;;;18.50;99.90;;;;;;5060800;28;20070;-72
2022/10/15 11:34:47;;;;;;;0.90;0.88;;;18.60;99.90;;;;;;5063391;28;20111;-72
2022/10/15 11:37:37;;;;;;;3.55;1.20;;;18.60;99.90;;;;;;5057860;28;20036;-72
2022/10/15 11:40:18;;;;;;;0.70;0.70;;;18.70;99.90;;;;;;5060265;28;20047;-72
2022/10/15 11:42:59;;;;;;;1.10;1.08;;;18.60;99.90;;;;;;5060359;28;20032;-72
2022/10/15 11:45:39;;;;;;;1.00;1.00;;;18.60;99.90;;;;;;5059649;28;20041;-72
2022/10/15 11:48:19;;;;;;;1.23;0.90;;;18.80;99.90;;;;;;5055080;28;20036;-72
2022/10/15 11:50:56;;;;;;;1.38;0.93;;;18.70;99.90;;;;;;5055363;28;20297;-72
2022/10/15 11:53:43;;;;;;;10.63;1.70;;;18.70;99.90;;;;;;5058850;28;20021;-72
2022/10/15 11:56:28;;;;;;;8.45;1.45;;;18.80;99.90;;;;;;5073396;28;20112;-72
2022/10/15 11:59:22;;;;;;;2.00;0.80;;;18.90;99.90;;;;;;5058737;28;20033;-71
2022/10/15 12:01:56;;;;;;;1.90;0.75;;;18.90;99.90;;;;;;5056464;28;20444;-71
2022/10/15 12:04:33;;;;;;;1.88;0.80;;;18.90;99.90;;;;;;5055022;28;20025;-71
2022/10/15 12:07:00;;;;;;;3.03;1.05;;;19.00;99.90;;;;;;5060791;28;20531;-71
2022/10/15 12:09:34;;;;;;;1.33;0.80;;;19.00;99.90;;;;;;5057115;28;20069;-71
2022/10/15 12:12:06;;;;;;;0.80;0.80;;;19.00;99.90;;;;;;5063211;28;20074;-72
2022/10/15 12:14:56;;;;;;;2.50;0.80;;;19.10;99.90;;;;;;5062660;28;20124;-72
2022/10/15 12:17:33;;;;;;;2.38;0.90;;;19.10;99.90;;;;;;5068011;28;20037;-71
2022/10/15 12:20:14;;;;;;;0.68;0.68;;;19.10;99.90;;;;;;5066867;28;20028;-71
2022/10/15 12:22:52;;;;;;;0.80;0.80;;;19.20;99.90;;;;;;5078542;28;20115;-72
2022/10/15 12:25:50;;;;;;;3.85;0.77;;;19.20;99.90;;;;;;5068416;28;20020;-71
2022/10/15 12:28:22;;;;;;;1.55;0.90;;;19.30;99.90;;;;;;5055340;28;20045;-71
2022/10/15 12:31:01;;;;;;;1.63;0.90;;;19.40;99.90;;;;;;5067262;28;20029;-72
2022/10/15 12:33:38;;;;;;;1.85;0.80;;;19.40;99.90;;;;;;5063240;28;20025;-72
2022/10/15 12:36:21;;;;;;;3.97;0.90;;;19.50;99.90;;;;;;5069843;28;20055;-72
2022/10/15 12:39:19;;;;;;;3.05;0.55;;;19.40;99.90;;;;;;5066077;28;20537;-72
2022/10/15 12:41:48;;;;;;;1.38;1.00;;;19.50;99.90;;;;;;5069013;28;20048;-71
2022/10/15 12:44:32;;;;;;;1.35;1.25;;;19.60;99.90;;;;;;5059532;28;20474;-71
2022/10/15 12:46:58;;;;;;;1.95;1.35;;;19.60;99.90;;;;;;5076686;28;20052;-71
2022/10/15 12:49:30;;;;;;;1.15;0.98;;;19.70;99.90;;;;;;5061913;28;20107;-71
2022/10/15 12:52:01;;;;;;;0.68;0.68;;;19.70;99.90;;;;;;5062959;28;20831;-71
2022/10/15 12:54:50;;;;;;;1.80;0.80;;;19.80;99.90;;;;;;5067433;28;20029;-72